Portada
METAR-TAF:

METAR-TAF

Aeroports :

Somerset Airport

Somerville, Nova Jersey, Estats Units d'Amèrica

latitud: 40-37-26N, longitud: 074-40-10W, altitud: 32 m

Observació

L'informe es va fer fa 41 minuts, a les 08:53 UTC
Vent calma
Temperatura 3°C
Humitat 87%
Pressió 1012 hPa
Visibilitat: 16.1 km
Cel cobert a una alçada de 6000 ft

METAR: KSMQ 200853Z AUTO 00000KT 10SM OVC060 03/01 A2988 RMK AO2 SLP119 T00330011 53006 $

Hora: 04:34 (09:34 UTC)


TAF: manca

Observacions i pronòstics meteorològics de més de 4000 aeroports (METAR i TAF).

Les estacions disponibles són els punts grocs i vermells al mapa.

Posi el ratolí al punt desitjat per veure el nom de l'estació.

Feu clic per veure les observacions i els pronòstics meteorològics.

Per canviar el mapa: feu clic els botons verds amb una creu de color negre per apropar; al botó verd amb un guió per allunyar la imatge; o en les fletxes verdes per a mapes adjacents.


METAR-TAF: